Time;durP1;ratioP1;P1;durP2;ratioP2;P2;SDS_P1;SDS_P2;PMS_P1;PMS_P2;Temp;Humidity;BMP_temperature;BMP_pressure;BME280_temperature;BME280_humidity;BME280_pressure;Samples;Min_cycle;Max_cycle;Signal;HPM_P1;HPM_P2
2023/09/12 00:01:05;;;;;;;26.73;16.67;;;;;;;19.17;100.00;101198.16;5069784;28;20111;-69
2023/09/12 00:03:31;;;;;;;27.73;15.30;;;;;;;19.18;100.00;101194.41;5069337;28;20044;-69
2023/09/12 00:05:57;;;;;;;29.42;15.75;;;;;;;19.16;100.00;101210.03;5069238;28;20031;-69
2023/09/12 00:08:23;;;;;;;25.98;14.27;;;;;;;19.18;100.00;101213.31;5069383;28;20410;-69
2023/09/12 00:11:03;;;;;;;24.55;15.70;;;;;;;19.25;100.00;101226.69;5069201;28;20028;-70
2023/09/12 00:13:30;;;;;;;23.98;14.35;;;;;;;19.22;100.00;101236.09;5069287;28;20027;-69
2023/09/12 00:15:55;;;;;;;26.05;15.93;;;;;;;19.24;100.00;101230.47;5069023;28;20032;-70
2023/09/12 00:18:21;;;;;;;28.25;16.52;;;;;;;19.24;100.00;101230.47;5069220;28;20223;-70
2023/09/12 00:20:46;;;;;;;29.25;16.20;;;;;;;19.18;100.00;101228.75;5067667;28;20514;-70
2023/09/12 00:23:11;;;;;;;28.25;15.48;;;;;;;19.15;100.00;101224.63;5069072;28;20028;-70
2023/09/12 00:25:37;;;;;;;26.13;15.27;;;;;;;19.12;100.00;101219.69;5068848;28;20112;-69
2023/09/12 00:28:02;;;;;;;26.80;15.52;;;;;;;19.13;100.00;101217.84;5068941;28;20043;-69
2023/09/12 00:30:28;;;;;;;27.27;15.95;;;;;;;19.07;100.00;101218.78;5069268;28;20032;-70
2023/09/12 00:32:53;;;;;;;28.92;18.35;;;;;;;19.02;100.00;101216.81;5068969;28;20127;-70
2023/09/12 00:35:18;;;;;;;26.27;15.40;;;;;;;19.00;100.00;101214.38;5067507;28;20124;-69
2023/09/12 00:37:44;;;;;;;27.40;16.90;;;;;;;19.05;100.00;101221.75;5068660;28;20044;-70
2023/09/12 00:40:10;;;;;;;28.73;18.08;;;;;;;19.05;100.00;101221.75;5067576;28;20033;-70
2023/09/12 00:42:35;;;;;;;27.40;16.50;;;;;;;19.02;100.00;101222.22;5067276;28;20043;-70
2023/09/12 00:45:00;;;;;;;26.75;14.95;;;;;;;19.02;100.00;101222.22;5068517;28;20055;-70
2023/09/12 00:47:27;;;;;;;28.17;16.38;;;;;;;18.96;100.00;101217.81;5068958;28;20032;-69
2023/09/12 00:49:55;;;;;;;27.45;17.33;;;;;;;18.95;100.00;101222.41;5068647;28;20075;-70
2023/09/12 00:52:22;;;;;;;25.38;16.63;;;;;;;18.88;100.00;101215.50;5067135;28;20483;-69
2023/09/12 00:54:48;;;;;;;24.23;14.55;;;;;;;18.82;100.00;101215.41;5068537;28;20115;-69
2023/09/12 00:57:13;;;;;;;24.90;15.57;;;;;;;18.80;100.00;101205.91;5068517;28;20575;-69
2023/09/12 00:59:39;;;;;;;25.30;15.07;;;;;;;18.79;100.00;101209.66;5068541;28;20033;-70
2023/09/12 01:02:05;;;;;;;24.50;14.80;;;;;;;18.72;100.00;101196.28;5068331;28;20090;-69
2023/09/12 01:04:32;;;;;;;26.90;14.77;;;;;;;18.77;100.00;101203.69;5068555;28;20515;-69
2023/09/12 01:06:58;;;;;;;27.60;16.15;;;;;;;18.75;100.00;101200.41;5068879;28;20024;-69
2023/09/12 01:09:24;;;;;;;28.20;15.52;;;;;;;18.75;100.00;101200.41;5068457;28;20407;-69
2023/09/12 01:11:49;;;;;;;24.35;14.32;;;;;;;18.72;100.00;101198.16;5066971;28;20430;-70
2023/09/12 01:14:15;;;;;;;22.55;12.90;;;;;;;18.72;100.00;101209.78;5068537;28;20623;-69
2023/09/12 01:16:41;;;;;;;25.45;13.75;;;;;;;18.72;100.00;101198.16;5068272;28;20028;-69
2023/09/12 01:19:08;;;;;;;22.30;13.52;;;;;;;18.68;100.00;101197.84;5067219;28;20032;-69
2023/09/12 01:21:56;;;;;;;24.50;14.88;;;;;;;18.71;100.00;101194.63;5068313;28;20032;-69
2023/09/12 01:24:52;;;;;;;26.77;16.33;;;;;;;18.73;100.00;101188.97;5068558;28;20070;-70
2023/09/12 01:27:34;;;;;;;26.20;14.73;;;;;;;18.72;100.00;101193.56;5068202;28;20023;-69
2023/09/12 01:30:03;;;;;;;25.33;14.55;;;;;;;18.75;100.00;101190.41;5068153;28;20388;-70
2023/09/12 01:32:29;;;;;;;23.55;13.45;;;;;;;18.74;100.00;101198.75;5066955;28;20085;-69
2023/09/12 01:34:55;;;;;;;25.90;14.98;;;;;;;18.76;100.00;101194.75;5066881;28;20037;-69
2023/09/12 01:37:20;;;;;;;28.15;15.60;;;;;;;18.78;100.00;101191.81;5068219;28;20035;-70
2023/09/12 01:39:45;;;;;;;25.00;14.43;;;;;;;18.78;100.00;101189.09;5068025;28;20021;-69
2023/09/12 01:42:15;;;;;;;27.67;15.32;;;;;;;18.74;100.00;101182.53;5068195;28;20480;-69
2023/09/12 01:44:43;;;;;;;28.35;18.30;;;;;;;18.76;100.00;101194.75;5067984;28;20072;-70
2023/09/12 01:47:11;;;;;;;26.92;16.45;;;;;;;18.67;100.00;101179.16;5068025;28;20036;-69
2023/09/12 01:49:39;;;;;;;26.35;15.48;;;;;;;18.67;100.00;101177.25;5068139;28;20028;-70
2023/09/12 01:52:05;;;;;;;26.23;15.30;;;;;;;18.68;100.00;101181.63;5067866;28;20459;-70
2023/09/12 01:54:32;;;;;;;24.08;14.43;;;;;;;18.62;100.00;101180.69;5064534;28;20502;-69
2023/09/12 01:56:58;;;;;;;26.75;16.50;;;;;;;18.61;100.00;101180.94;5069168;28;20051;-70
2023/09/12 01:59:24;;;;;;;22.92;13.30;;;;;;;18.55;100.00;101176.50;5071822;28;20063;-69
2023/09/12 02:01:50;;;;;;;23.80;14.23;;;;;;;18.52;100.00;101179.69;5071801;28;20112;-69
2023/09/12 02:04:16;;;;;;;24.42;14.88;;;;;;;18.53;100.00;101182.16;5071630;28;20036;-69
2023/09/12 02:06:41;;;;;;;24.23;14.75;;;;;;;18.52;100.00;101175.13;5052628;28;20029;-70
2023/09/12 02:09:06;;;;;;;31.05;15.07;;;;;;;18.55;100.00;101180.03;5052541;28;20397;-70
2023/09/12 02:11:32;;;;;;;23.20;14.32;;;;;;;18.53;100.00;101175.94;5052598;28;20033;-70
2023/09/12 02:13:57;;;;;;;25.73;15.05;;;;;;;18.51;100.00;101178.84;5051016;28;20116;-70
2023/09/12 02:16:22;;;;;;;23.80;14.23;;;;;;;18.43;100.00;101168.44;5055527;28;20036;-70
2023/09/12 02:18:48;;;;;;;22.60;13.43;;;;;;;18.44;100.00;101182.75;5071464;28;20680;-70
2023/09/12 02:21:15;;;;;;;26.83;15.60;;;;;;;18.40;100.00;101168.94;5070386;28;20032;-70
2023/09/12 02:23:41;;;;;;;31.10;14.50;;;;;;;18.38;100.00;101163.75;5071441;28;20517;-70
2023/09/12 02:26:06;;;;;;;26.33;15.88;;;;;;;18.38;100.00;101174.56;5071257;28;20075;-70
2023/09/12 02:28:32;;;;;;;26.63;16.75;;;;;;;18.33;100.00;101177.16;5069926;28;20063;-69
2023/09/12 02:30:57;;;;;;;25.02;13.57;;;;;;;18.33;100.00;101187.97;5071087;28;20037;-70
2023/09/12 02:33:23;;;;;;;24.98;14.10;;;;;;;18.32;100.00;101190.91;5071569;28;20032;-70
2023/09/12 02:35:48;;;;;;;24.58;15.27;;;;;;;18.30;100.00;101193.03;5071180;28;20380;-70
2023/09/12 02:38:13;;;;;;;27.92;17.67;;;;;;;18.30;100.00;101198.44;5071439;28;20625;-69
2023/09/12 02:40:39;;;;;;;27.65;16.95;;;;;;;18.29;100.00;101194.09;5070951;28;20033;-70
2023/09/12 02:43:04;;;;;;;27.23;15.60;;;;;;;18.30;100.00;101201.13;5071030;28;20069;-69
2023/09/12 02:45:30;;;;;;;27.50;16.08;;;;;;;18.29;100.00;101203.03;5070851;28;20052;-69
2023/09/12 02:47:55;;;;;;;33.08;19.05;;;;;;;18.27;100.00;101207.84;5071022;28;20036;-69
2023/09/12 02:50:20;;;;;;;24.23;14.48;;;;;;;18.26;100.00;101203.50;5070862;28;20062;-69
2023/09/12 02:52:46;;;;;;;25.40;16.10;;;;;;;18.23;100.00;101190.47;5070563;28;20266;-70
2023/09/12 02:55:12;;;;;;;24.10;15.45;;;;;;;18.27;100.00;101204.31;5071421;28;20020;-70
2023/09/12 02:57:37;;;;;;;24.70;14.48;;;;;;;18.21;100.00;101195.31;5070416;28;20032;-69
2023/09/12 03:00:06;;;;;;;24.42;13.88;;;;;;;18.21;100.00;101200.69;5070802;28;20035;-69
2023/09/12 03:02:31;;;;;;;23.88;14.38;;;;;;;18.20;100.00;101199.03;5070732;28;20040;-69
2023/09/12 03:04:56;;;;;;;27.05;17.98;;;;;;;18.15;100.00;101188.94;5070609;28;20108;-69
2023/09/12 03:07:22;;;;;;;24.83;15.15;;;;;;;18.16;100.00;101198.72;5070277;28;20065;-70
2023/09/12 03:09:50;;;;;;;27.20;16.17;;;;;;;18.14;100.00;101198.13;5069936;28;20547;-69
2023/09/12 03:12:16;;;;;;;25.25;15.68;;;;;;;18.15;100.00;101198.94;5070569;28;20071;-70
2023/09/12 03:14:41;;;;;;;22.92;14.75;;;;;;;18.14;100.00;101200.81;5070299;28;20071;-69
2023/09/12 03:17:06;;;;;;;26.10;15.05;;;;;;;18.14;100.00;101200.81;5070377;28;20040;-69
2023/09/12 03:19:32;;;;;;;26.08;13.25;;;;;;;18.12;100.00;101202.13;5070424;28;20037;-70
2023/09/12 03:21:57;;;;;;;25.83;15.65;;;;;;;18.11;100.00;101205.88;5070174;28;20173;-69
2023/09/12 03:24:24;;;;;;;24.70;15.63;;;;;;;18.10;100.00;101199.66;5070190;28;20058;-69
2023/09/12 03:26:50;;;;;;;24.88;15.25;;;;;;;18.04;100.00;101183.59;5070255;28;20032;-69
2023/09/12 03:29:16;;;;;;;24.92;14.75;;;;;;;18.09;100.00;101183.69;5068838;28;20389;-69
2023/09/12 03:31:41;;;;;;;24.55;15.48;;;;;;;17.96;100.00;101182.91;5070217;28;20070;-69
2023/09/12 03:34:06;;;;;;;24.50;15.25;;;;;;;17.89;100.00;101173.28;5070529;28;20932;-69
2023/09/12 03:36:32;;;;;;;23.13;13.02;;;;;;;17.89;100.00;101175.97;5069635;28;20036;-69
2023/09/12 03:38:57;;;;;;;23.33;14.25;;;;;;;17.89;100.00;101171.44;5069961;28;20031;-70
2023/09/12 03:41:25;;;;;;;24.38;15.35;;;;;;;17.88;100.00;101168.97;5070428;28;20039;-69
2023/09/12 03:43:54;;;;;;;26.33;14.80;;;;;;;17.85;100.00;101162.16;5049680;28;20063;-69
2023/09/12 03:46:19;;;;;;;24.40;15.05;;;;;;;17.86;100.00;101169.19;5052672;28;20051;-70
2023/09/12 03:48:45;;;;;;;24.10;14.07;;;;;;;17.84;100.00;101167.78;5069835;28;20479;-69
2023/09/12 03:51:11;;;;;;;21.05;12.13;;;;;;;17.77;100.00;101158.97;5069382;28;20373;-69
2023/09/12 03:53:36;;;;;;;22.80;12.75;;;;;;;17.70;100.00;101159.09;5068543;28;20090;-69
2023/09/12 03:56:02;;;;;;;20.33;12.52;;;;;;;17.66;100.00;101168.72;5069914;28;20021;-70
2023/09/12 03:58:27;;;;;;;20.17;11.68;;;;;;;17.53;100.00;101164.41;5069541;28;20544;-69
2023/09/12 04:00:52;;;;;;;19.25;10.65;;;;;;;17.54;100.00;101160.63;5068364;28;20032;-69
2023/09/12 04:03:18;;;;;;;22.75;13.18;;;;;;;17.60;100.00;101167.78;5069299;28;20043;-69
2023/09/12 04:05:45;;;;;;;22.90;13.48;;;;;;;17.63;100.00;101174.56;5069506;28;20123;-69
2023/09/12 04:08:11;;;;;;;23.85;13.32;;;;;;;17.66;100.00;101166.03;5069366;28;20091;-69
2023/09/12 04:10:36;;;;;;;21.75;11.93;;;;;;;17.65;100.00;101165.19;5069313;28;20066;-69
2023/09/12 04:13:02;;;;;;;21.13;13.05;;;;;;;17.53;100.00;101156.31;5069333;28;20028;-69
2023/09/12 04:15:27;;;;;;;20.35;10.60;;;;;;;17.56;100.00;101160.41;5069291;28;20029;-69
2023/09/12 04:17:53;;;;;;;19.63;11.32;;;;;;;17.52;100.00;101165.44;5069215;28;20077;-69
2023/09/12 04:20:18;;;;;;;22.90;13.23;;;;;;;17.56;100.00;101160.41;5069121;28;20111;-69
2023/09/12 04:22:44;;;;;;;21.83;12.23;;;;;;;17.57;100.00;101156.66;5069147;28;20098;-70
2023/09/12 04:25:10;;;;;;;21.88;12.73;;;;;;;17.61;100.00;101158.66;5068930;28;20044;-69
2023/09/12 04:27:35;;;;;;;21.58;12.20;;;;;;;17.65;100.00;101165.19;5069041;28;20379;-69
2023/09/12 04:30:01;;;;;;;25.98;16.73;;;;;;;17.67;100.00;101155.00;5068927;28;20040;-69
2023/09/12 04:32:26;;;;;;;22.58;14.10;;;;;;;17.67;100.00;101155.00;5069004;28;20541;-70
2023/09/12 04:34:51;;;;;;;24.27;14.73;;;;;;;17.70;100.00;101156.41;5068913;28;20035;-70
2023/09/12 04:37:17;;;;;;;22.15;13.68;;;;;;;17.74;100.00;101163.78;5068752;28;20029;-69
2023/09/12 04:39:43;;;;;;;24.75;15.18;;;;;;;17.72;100.00;101154.28;5068622;28;20093;-70
2023/09/12 04:42:08;;;;;;;25.83;13.07;;;;;;;17.79;100.00;101162.25;5068807;28;20624;-69
2023/09/12 04:44:40;;;;;;;23.70;13.80;;;;;;;17.80;100.00;101172.84;5068450;28;20571;-70
2023/09/12 04:47:06;;;;;;;22.08;11.82;;;;;;;17.80;100.00;101174.72;5067146;28;20033;-69
2023/09/12 04:49:31;;;;;;;21.60;13.30;;;;;;;17.75;100.00;101170.81;5068826;28;20043;-69
2023/09/12 04:51:57;;;;;;;23.95;14.90;;;;;;;17.80;100.00;101174.72;5068560;28;20033;-69
2023/09/12 04:54:22;;;;;;;22.20;13.30;;;;;;;17.77;100.00;101170.59;5049492;28;20425;-70
2023/09/12 04:56:48;;;;;;;24.75;13.57;;;;;;;17.77;100.00;101170.59;5049289;28;20036;-69
2023/09/12 04:59:13;;;;;;;25.05;13.52;;;;;;;17.79;100.00;101173.03;5049596;28;20028;-69
2023/09/12 05:01:39;;;;;;;24.60;13.50;;;;;;;17.76;100.00;101177.03;5049283;28;20083;-70
2023/09/12 05:04:04;;;;;;;23.10;13.38;;;;;;;17.74;100.00;101174.56;5049328;28;20033;-70
2023/09/12 05:06:30;;;;;;;22.95;13.95;;;;;;;17.75;100.00;101183.50;5049297;28;20466;-70
2023/09/12 05:08:55;;;;;;;23.90;13.02;;;;;;;17.75;100.00;101183.50;5068348;28;20029;-69
2023/09/12 05:11:23;;;;;;;22.80;14.27;;;;;;;17.71;100.00;101185.84;5067245;28;20024;-69
2023/09/12 05:13:49;;;;;;;25.30;15.15;;;;;;;17.72;100.00;101181.25;5049306;28;20408;-70
2023/09/12 05:16:14;;;;;;;25.88;14.55;;;;;;;17.75;100.00;101175.41;5047182;28;20036;-70
2023/09/12 05:18:39;;;;;;;26.50;14.88;;;;;;;17.73;100.00;101185.59;5067419;28;20032;-70
2023/09/12 05:21:05;;;;;;;25.63;14.88;;;;;;;17.73;100.00;101191.00;5067734;28;20036;-70
2023/09/12 05:23:30;;;;;;;34.83;14.80;;;;;;;17.74;100.00;101189.94;5066449;28;20049;-70
2023/09/12 05:25:56;;;;;;;25.83;15.07;;;;;;;17.73;100.00;101182.91;5053064;28;20064;-69
2023/09/12 05:28:21;;;;;;;26.60;15.93;;;;;;;17.70;100.00;101186.88;5048013;28;20388;-69
2023/09/12 05:30:46;;;;;;;27.42;15.35;;;;;;;17.70;100.00;101183.38;5048810;28;20068;-69
2023/09/12 05:33:12;;;;;;;23.10;13.32;;;;;;;17.71;100.00;101188.53;5052769;28;20487;-69
2023/09/12 05:35:37;;;;;;;23.77;16.25;;;;;;;17.73;100.00;101186.41;5050915;28;20041;-70
2023/09/12 05:38:03;;;;;;;24.73;14.88;;;;;;;17.68;100.00;101170.13;5052284;28;20032;-70
2023/09/12 05:40:28;;;;;;;25.63;15.20;;;;;;;17.74;100.00;101171.88;5052707;28;20123;-69
2023/09/12 05:42:54;;;;;;;28.80;14.65;;;;;;;17.74;100.00;101173.75;5053343;28;20083;-69
2023/09/12 05:45:19;;;;;;;29.75;17.58;;;;;;;17.74;100.00;101179.97;5051522;28;20144;-70
2023/09/12 05:47:44;;;;;;;29.65;14.77;;;;;;;17.71;100.00;101169.66;5053147;28;20488;-69
2023/09/12 05:50:11;;;;;;;23.42;14.02;;;;;;;17.73;100.00;101180.19;5035121;28;20106;-69
2023/09/12 05:52:37;;;;;;;25.65;14.52;;;;;;;17.74;100.00;101179.16;5052138;28;20112;-70
2023/09/12 05:55:04;;;;;;;27.40;13.93;;;;;;;17.71;100.00;101185.00;5072059;28;20016;-69
2023/09/12 05:57:33;;;;;;;22.92;14.10;;;;;;;17.71;100.00;101179.59;5068249;28;20041;-69
2023/09/12 05:59:59;;;;;;;25.90;14.00;;;;;;;17.69;100.00;101192.53;5072147;28;20032;-69
2023/09/12 06:02:25;;;;;;;26.00;14.50;;;;;;;17.68;100.00;101197.13;5071024;28;20115;-69
2023/09/12 06:04:50;;;;;;;23.98;13.85;;;;;;;17.70;100.00;101183.38;5069414;28;20123;-69
2023/09/12 06:07:16;;;;;;;24.00;14.48;;;;;;;17.69;100.00;101187.13;5062518;28;20047;-70
2023/09/12 06:09:42;;;;;;;24.80;15.25;;;;;;;17.72;100.00;101192.06;5071663;28;20044;-69
2023/09/12 06:12:07;;;;;;;24.83;14.75;;;;;;;17.73;100.00;101191.00;5071851;28;20086;-69
2023/09/12 06:14:32;;;;;;;25.75;15.13;;;;;;;17.69;100.00;101177.16;5068150;28;20062;-69
2023/09/12 06:16:58;;;;;;;24.83;14.60;;;;;;;17.72;100.00;101187.47;5054925;28;20035;-69
2023/09/12 06:19:24;;;;;;;25.17;14.95;;;;;;;17.79;100.00;101191.91;5052412;28;20051;-69
2023/09/12 06:21:49;;;;;;;26.98;15.40;;;;;;;17.82;100.00;101192.31;5067238;28;20044;-69
2023/09/12 06:24:21;;;;;;;26.83;15.60;;;;;;;17.79;100.00;101187.41;5071665;28;20031;-70
2023/09/12 06:26:46;;;;;;;23.85;14.55;;;;;;;17.83;100.00;101193.94;5052414;28;20024;-69
2023/09/12 06:29:13;;;;;;;28.00;16.15;;;;;;;17.82;100.00;101189.63;5051079;28;20128;-69
2023/09/12 06:31:41;;;;;;;27.83;17.48;;;;;;;17.74;100.00;101185.38;5052374;28;20041;-69
2023/09/12 06:34:07;;;;;;;29.23;18.85;;;;;;;17.83;100.00;101204.75;5069667;28;20029;-69
2023/09/12 06:36:32;;;;;;;31.95;19.38;;;;;;;17.83;100.00;101196.66;5071651;28;20147;-69
2023/09/12 06:38:59;;;;;;;30.35;17.25;;;;;;;17.83;100.00;101199.34;5071614;28;20044;-69
2023/09/12 06:41:26;;;;;;;29.95;15.45;;;;;;;17.83;100.00;101193.13;5071101;28;20039;-70
2023/09/12 06:43:52;;;;;;;26.30;16.02;;;;;;;17.85;100.00;101205.34;5070558;28;20154;-70
2023/09/12 06:46:18;;;;;;;26.52;17.10;;;;;;;17.83;100.00;101191.25;5071229;28;20028;-70
2023/09/12 06:48:44;;;;;;;26.15;16.25;;;;;;;17.85;100.00;101194.53;5058266;28;20537;-70
2023/09/12 06:51:10;;;;;;;29.48;16.90;;;;;;;17.87;100.00;101205.09;5070545;28;20123;-70
2023/09/12 06:53:39;;;;;;;31.77;17.25;;;;;;;17.92;100.00;101205.19;5069568;28;20029;-70
2023/09/12 06:56:07;;;;;;;29.35;16.65;;;;;;;17.92;100.00;101203.34;5070806;28;20086;-70
2023/09/12 06:58:33;;;;;;;30.02;18.25;;;;;;;18.04;100.00;101216.81;5051408;28;20024;-70
2023/09/12 07:01:03;;;;;;;32.72;19.58;;;;;;;18.11;100.00;101216.69;5070520;28;20372;-70
2023/09/12 07:03:28;;;;;;;32.47;18.70;;;;;;;18.13;100.00;101210.00;5070712;28;20072;-71
2023/09/12 07:05:53;;;;;;;25.65;16.67;;;;;;;18.16;100.00;101219.50;5070422;28;20056;-70
2023/09/12 07:08:19;;;;;;;28.40;17.08;;;;;;;18.23;100.00;101220.16;5069539;28;20028;-70
2023/09/12 07:10:45;;;;;;;29.55;18.17;;;;;;;18.26;100.00;101225.09;5069518;28;20082;-70
2023/09/12 07:13:11;;;;;;;29.00;17.08;;;;;;;18.21;100.00;101207.97;5070432;28;20076;-70
2023/09/12 07:15:36;;;;;;;29.90;17.98;;;;;;;18.31;100.00;101218.97;5069412;28;20047;-70
2023/09/12 07:18:02;;;;;;;28.88;18.58;;;;;;;18.35;100.00;101226.34;5069648;28;20060;-71
2023/09/12 07:20:27;;;;;;;28.70;18.70;;;;;;;18.40;100.00;101221.06;5070392;28;20400;-71
2023/09/12 07:22:53;;;;;;;28.70;18.10;;;;;;;18.43;100.00;101230.56;5072939;28;20056;-71
2023/09/12 07:25:20;;;;;;;31.25;20.95;;;;;;;18.45;100.00;101219.53;5070639;28;20125;-70
2023/09/12 07:27:46;;;;;;;32.55;19.55;;;;;;;18.47;100.00;101229.03;5070187;28;20029;-70
2023/09/12 07:30:11;;;;;;;29.70;18.75;;;;;;;18.52;100.00;101231.84;5058880;28;20035;-70
2023/09/12 07:32:36;;;;;;;26.80;17.10;;;;;;;18.58;100.00;101233.56;5050455;28;20170;-76
2023/09/12 07:35:02;;;;;;;28.60;16.90;;;;;;;18.58;100.00;101220.06;5050201;28;20468;-69
2023/09/12 07:37:27;;;;;;;27.73;18.35;;;;;;;18.64;100.00;101220.16;5051589;28;20040;-70
2023/09/12 07:39:53;;;;;;;26.70;16.17;;;;;;;18.73;100.00;101224.94;5043115;28;20403;-70
2023/09/12 07:42:24;;;;;;;30.95;16.58;;;;;;;18.79;100.00;101229.41;5051911;28;20111;-68
2023/09/12 07:44:50;;;;;;;29.08;18.05;;;;;;;18.85;100.00;101234.91;5051375;28;20130;-69
2023/09/12 07:47:15;;;;;;;31.05;19.30;;;;;;;18.93;100.00;101235.31;5051385;28;20051;-69
2023/09/12 07:49:41;;;;;;;28.63;18.15;;;;;;;19.02;100.00;101239.28;5051939;28;20044;-70
2023/09/12 07:52:07;;;;;;;29.50;17.92;;;;;;;19.10;100.00;101248.03;5052186;28;20028;-69
2023/09/12 07:54:32;;;;;;;30.25;17.98;;;;;;;19.19;100.00;101243.88;5050028;28;20024;-70
2023/09/12 07:56:57;;;;;;;30.85;21.33;;;;;;;19.24;100.00;101247.50;5051559;28;20035;-71
2023/09/12 07:59:23;;;;;;;38.90;27.02;;;;;;;19.32;100.00;101243.56;5052096;28;20028;-71
2023/09/12 08:01:48;;;;;;;38.33;26.10;;;;;;;19.36;100.00;101236.63;5050805;28;20055;-71
2023/09/12 08:04:14;;;;;;;35.97;26.52;;;;;;;19.31;100.00;101231.13;5049826;28;20032;-71
2023/09/12 08:06:40;;;;;;;42.58;28.02;;;;;;;19.36;100.00;101233.06;5051790;28;20487;-72
2023/09/12 08:09:06;;;;;;;35.58;23.98;;;;;;;19.41;100.00;101234.00;5051069;28;20039;-73
2023/09/12 08:11:32;;;;;;;35.60;23.77;;;;;;;19.51;100.00;101236.03;5049469;28;20040;-69
2023/09/12 08:13:57;;;;;;;43.05;25.00;;;;;;;19.58;100.00;101225.84;5049045;28;20024;-69
2023/09/12 08:16:23;;;;;;;37.17;26.27;;;;;;;19.68;100.00;101236.06;5051020;28;20065;-71
2023/09/12 08:18:48;;;;;;;39.35;25.40;;;;;;;19.81;100.00;101240.31;5049184;28;20174;-71
2023/09/12 08:21:13;;;;;;;34.42;22.58;;;;;;;19.94;100.00;101229.13;5050631;28;20024;-72
2023/09/12 08:23:39;;;;;;;35.67;23.92;;;;;;;20.35;100.00;101243.16;5049765;28;20143;-68
2023/09/12 08:26:04;;;;;;;31.92;21.80;;;;;;;20.85;100.00;101250.25;5049953;28;20140;-71
2023/09/12 08:28:29;;;;;;;32.95;21.33;;;;;;;21.02;100.00;101253.69;5050434;28;20048;-73
2023/09/12 08:30:55;;;;;;;33.45;21.55;;;;;;;20.99;100.00;101261.53;5049984;28;20889;-73
2023/09/12 08:33:20;;;;;;;27.45;15.32;;;;;;;20.88;100.00;101260.63;5052136;28;20051;-73
2023/09/12 08:35:45;;;;;;;24.88;16.08;;;;;;;20.76;100.00;101262.66;5057541;28;20036;-73
2023/09/12 08:38:11;;;;;;;28.48;16.95;;;;;;;20.71;100.00;101263.41;5054766;28;20060;-73
2023/09/12 08:40:37;;;;;;;33.50;18.55;;;;;;;20.72;100.00;101272.34;5057870;28;20036;-73
2023/09/12 08:43:03;;;;;;;27.35;16.83;;;;;;;20.75;100.00;101275.41;5067918;28;20664;-73
2023/09/12 08:45:29;;;;;;;48.90;17.17;;;;;;;20.75;100.00;101272.69;5069009;28;20458;-73
2023/09/12 08:47:58;;;;;;;25.40;14.98;;;;;;;20.75;100.00;101279.97;5056999;28;20136;-73
2023/09/12 08:50:24;;;;;;;23.60;14.50;;;;;;;20.73;100.00;101282.16;5048336;28;20534;-73
2023/09/12 08:52:50;;;;;;;23.65;13.95;;;;;;;20.71;100.00;101287.81;5050615;28;20040;-74
2023/09/12 08:55:16;;;;;;;22.85;13.52;;;;;;;20.73;100.00;101279.44;5052543;28;20033;-74
2023/09/12 08:57:43;;;;;;;25.20;15.60;;;;;;;20.77;100.00;101286.78;5062295;28;20090;-74
2023/09/12 09:00:14;;;;;;;21.95;12.88;;;;;;;20.90;100.00;101290.19;5060982;28;20082;-73
2023/09/12 09:02:43;;;;;;;23.23;13.45;;;;;;;21.03;100.00;101284.34;5060223;28;20740;-73
2023/09/12 09:05:10;;;;;;;24.35;13.68;;;;;;;21.09;100.00;101290.63;5049642;28;20037;-74
2023/09/12 09:07:37;;;;;;;24.83;12.82;;;;;;;21.16;100.00;101277.69;5065351;28;20055;-74
2023/09/12 09:10:07;;;;;;;25.80;12.40;;;;;;;21.29;100.00;101288.13;5068588;28;20028;-74
2023/09/12 09:12:33;;;;;;;22.05;10.77;;;;;;;21.47;100.00;101294.28;5062028;28;20056;-74
2023/09/12 09:15:19;;;;;;;22.10;11.68;;;;;;;21.56;100.00;101292.72;5062092;28;20033;-74
2023/09/12 09:17:44;;;;;;;18.45;9.73;;;;;;;21.40;100.00;101297.19;5064806;28;20040;-74
2023/09/12 09:20:10;;;;;;;20.75;11.65;;;;;;;21.31;100.00;101302.25;5058856;28;20657;-75
2023/09/12 09:22:35;;;;;;;23.77;11.52;;;;;;;21.23;100.00;101300.81;5049745;28;20041;-74
2023/09/12 09:25:12;;;;;;;22.52;12.52;;;;;;;21.21;100.00;101300.25;5058540;28;20413;-74
2023/09/12 09:27:37;;;;;;;23.95;13.60;;;;;;;21.23;100.00;101289.97;5065239;28;20116;-74
2023/09/12 09:30:03;;;;;;;24.98;14.45;;;;;;;21.37;100.00;101284.94;5062146;28;20123;-74
2023/09/12 09:32:28;;;;;;;22.98;13.13;;;;;;;21.44;100.00;101263.06;5052510;28;20052;-74
2023/09/12 09:34:54;;;;;;;23.77;13.50;;;;;;;21.59;100.00;101265.06;5051618;28;20037;-74
2023/09/12 09:37:19;;;;;;;23.60;11.73;;;;;;;21.63;100.00;101261.56;5063454;28;20029;-74
2023/09/12 09:39:46;;;;;;;25.38;11.93;;;;;;;21.72;100.00;101269.22;5061664;28;20036;-74
2023/09/12 09:42:14;;;;;;;18.00;9.27;;;;;;;21.77;100.00;101269.25;5064350;28;20032;-74
2023/09/12 09:44:39;;;;;;;19.23;9.45;;;;;;;21.82;100.00;101261.97;5058234;28;20052;-74
2023/09/12 09:47:05;;;;;;;19.13;9.52;;;;;;;21.94;100.00;101267.19;5056331;28;20078;-75
2023/09/12 09:49:36;;;;;;;17.27;9.45;;;;;;;22.02;100.00;101274.84;5059626;28;20589;-74
2023/09/12 09:52:05;;;;;;;24.27;11.23;;;;;;;22.01;100.00;101266.97;5065796;28;20111;-74
2023/09/12 09:54:30;;;;;;;19.95;10.60;;;;;;;22.17;100.00;101274.13;5056587;28;20504;-74
2023/09/12 09:56:57;;;;;;;16.85;8.63;;;;;;;22.23;100.00;101278.53;5050483;28;20095;-75
2023/09/12 09:59:25;;;;;;;17.60;8.23;;;;;;;22.31;100.00;101271.75;5053180;28;20020;-74
2023/09/12 10:01:56;;;;;;;18.73;9.40;;;;;;;22.38;100.00;101264.19;5061251;28;20048;-74
2023/09/12 10:04:23;;;;;;;19.73;8.60;;;;;;;22.43;100.00;101268.84;5068366;28;20059;-74
2023/09/12 10:06:49;;;;;;;16.25;8.43;;;;;;;22.44;100.00;101262.31;5064629;28;20387;-74
2023/09/12 10:09:16;;;;;;;14.00;7.15;;;;;;;22.59;100.00;101270.53;5062463;28;20029;-75
2023/09/12 10:11:43;;;;;;;10.45;4.72;;;;;;;22.65;100.00;101271.34;5049161;28;20033;-74
2023/09/12 10:14:09;;;;;;;17.05;6.68;;;;;;;22.75;100.00;101271.38;5064977;28;20025;-75
2023/09/12 10:16:38;;;;;;;14.05;7.10;;;;;;;22.74;100.00;101265.13;5066816;28;20032;-74
2023/09/12 10:19:18;;;;;;;15.88;6.78;;;;;;;22.80;100.00;101268.69;5069866;28;20032;-74
2023/09/12 10:21:50;;;;;;;18.88;8.20;;;;;;;22.92;100.00;101271.97;5059533;28;20410;-74
2023/09/12 10:24:15;;;;;;;38.75;9.23;;;;;;;23.19;100.00;101265.50;5063871;28;20391;-73
2023/09/12 10:26:45;;;;;;;13.40;5.97;;;;;;;23.11;100.00;101250.53;5054578;28;20029;-74
2023/09/12 10:29:13;;;;;;;14.57;7.30;;;;;;;23.26;100.00;101262.50;5059323;28;20025;-74
2023/09/12 10:31:39;;;;;;;16.58;8.27;;;;;;;23.23;99.23;101254.88;5062853;28;20484;-74
2023/09/12 10:34:09;;;;;;;16.27;7.90;;;;;;;23.24;99.21;101267.41;5063385;28;20032;-75
2023/09/12 10:36:38;;;;;;;18.70;8.68;;;;;;;23.27;97.89;101264.97;5065950;28;20028;-72
2023/09/12 10:39:05;;;;;;;17.48;6.78;;;;;;;23.30;100.00;101255.44;5055409;28;20036;-74
2023/09/12 10:41:30;;;;;;;11.90;5.30;;;;;;;23.32;99.15;101253.28;5055653;28;20021;-69
2023/09/12 10:43:58;;;;;;;14.32;5.60;;;;;;;23.37;96.78;101247.81;5056744;28;20028;-74
2023/09/12 10:46:23;;;;;;;15.25;6.30;;;;;;;23.38;97.50;101247.53;5052522;28;20056;-74
2023/09/12 10:48:51;;;;;;;14.90;6.20;;;;;;;23.47;97.76;101242.34;5059154;28;20099;-73
2023/09/12 10:51:17;;;;;;;11.93;6.50;;;;;;;23.45;92.40;101246.44;5066132;28;20483;-73
2023/09/12 10:53:49;;;;;;;14.75;6.10;;;;;;;23.51;93.82;101250.81;5060763;28;20079;-72
2023/09/12 10:56:29;;;;;;;14.25;5.63;;;;;;;23.54;93.63;101247.53;5068879;28;20028;-71
2023/09/12 10:59:06;;;;;;;12.75;5.97;;;;;;;23.69;97.66;101244.78;5069344;28;20075;-73